sensor_id;sensor_type;location;lat;lon;timestamp;P1;durP1;ratioP1;P2;durP2;ratioP2
36745;SDS011;22715;52.182;21.206;2023-02-11T00:01:23;28.50;;;16.55;;
36745;SDS011;22715;52.182;21.206;2023-02-11T00:03:55;39.00;;;18.85;;
36745;SDS011;22715;52.182;21.206;2023-02-11T00:06:23;35.30;;;19.48;;
36745;SDS011;22715;52.182;21.206;2023-02-11T00:11:26;37.78;;;18.27;;
36745;SDS011;22715;52.182;21.206;2023-02-11T00:14:02;40.08;;;18.75;;
36745;SDS011;22715;52.182;21.206;2023-02-11T00:16:30;33.45;;;18.25;;
36745;SDS011;22715;52.182;21.206;2023-02-11T00:18:58;40.25;;;17.20;;
36745;SDS011;22715;52.182;21.206;2023-02-11T00:21:25;37.78;;;18.27;;
36745;SDS011;22715;52.182;21.206;2023-02-11T00:23:55;32.85;;;17.80;;
36745;SDS011;22715;52.182;21.206;2023-02-11T00:29:05;32.47;;;18.52;;
36745;SDS011;22715;52.182;21.206;2023-02-11T00:31:31;26.83;;;15.65;;
36745;SDS011;22715;52.182;21.206;2023-02-11T00:33:57;24.55;;;15.07;;
36745;SDS011;22715;52.182;21.206;2023-02-11T00:36:26;37.60;;;17.40;;
36745;SDS011;22715;52.182;21.206;2023-02-11T00:38:56;35.23;;;15.50;;
36745;SDS011;22715;52.182;21.206;2023-02-11T00:41:22;30.87;;;16.03;;
36745;SDS011;22715;52.182;21.206;2023-02-11T00:43:48;32.45;;;16.33;;
36745;SDS011;22715;52.182;21.206;2023-02-11T00:46:16;29.40;;;14.50;;
36745;SDS011;22715;52.182;21.206;2023-02-11T00:48:41;28.25;;;16.50;;
36745;SDS011;22715;52.182;21.206;2023-02-11T00:51:09;35.97;;;16.95;;
36745;SDS011;22715;52.182;21.206;2023-02-11T00:53:35;32.30;;;15.35;;
36745;SDS011;22715;52.182;21.206;2023-02-11T00:56:01;27.63;;;15.57;;
36745;SDS011;22715;52.182;21.206;2023-02-11T00:58:27;27.05;;;14.07;;
36745;SDS011;22715;52.182;21.206;2023-02-11T01:00:53;30.00;;;15.43;;
36745;SDS011;22715;52.182;21.206;2023-02-11T01:03:19;24.52;;;15.77;;
36745;SDS011;22715;52.182;21.206;2023-02-11T01:05:45;27.75;;;13.50;;
36745;SDS011;22715;52.182;21.206;2023-02-11T01:08:10;25.20;;;13.88;;
36745;SDS011;22715;52.182;21.206;2023-02-11T01:10:36;33.30;;;15.55;;
36745;SDS011;22715;52.182;21.206;2023-02-11T01:13:02;30.50;;;14.85;;
36745;SDS011;22715;52.182;21.206;2023-02-11T01:15:27;33.28;;;15.15;;
36745;SDS011;22715;52.182;21.206;2023-02-11T01:17:53;32.45;;;15.68;;
36745;SDS011;22715;52.182;21.206;2023-02-11T01:23:05;31.42;;;14.15;;
36745;SDS011;22715;52.182;21.206;2023-02-11T01:25:31;25.17;;;14.52;;
36745;SDS011;22715;52.182;21.206;2023-02-11T01:27:57;28.10;;;12.20;;
36745;SDS011;22715;52.182;21.206;2023-02-11T01:30:25;25.55;;;15.73;;
36745;SDS011;22715;52.182;21.206;2023-02-11T01:32:50;26.77;;;12.48;;
36745;SDS011;22715;52.182;21.206;2023-02-11T01:35:16;24.25;;;14.07;;
36745;SDS011;22715;52.182;21.206;2023-02-11T01:37:41;30.50;;;13.82;;
36745;SDS011;22715;52.182;21.206;2023-02-11T01:40:21;27.75;;;16.02;;
36745;SDS011;22715;52.182;21.206;2023-02-11T01:42:46;31.33;;;13.47;;
36745;SDS011;22715;52.182;21.206;2023-02-11T01:47:56;27.75;;;12.45;;
36745;SDS011;22715;52.182;21.206;2023-02-11T01:50:33;22.33;;;13.52;;
36745;SDS011;22715;52.182;21.206;2023-02-11T01:52:59;30.70;;;12.23;;
36745;SDS011;22715;52.182;21.206;2023-02-11T01:55:49;24.95;;;13.50;;
36745;SDS011;22715;52.182;21.206;2023-02-11T01:58:33;27.58;;;12.18;;
36745;SDS011;22715;52.182;21.206;2023-02-11T02:01:01;23.85;;;13.10;;
36745;SDS011;22715;52.182;21.206;2023-02-11T02:03:32;20.52;;;11.63;;
36745;SDS011;22715;52.182;21.206;2023-02-11T02:09:05;20.02;;;10.70;;
36745;SDS011;22715;52.182;21.206;2023-02-11T02:11:33;17.58;;;10.63;;
36745;SDS011;22715;52.182;21.206;2023-02-11T02:13:58;20.95;;;11.98;;
36745;SDS011;22715;52.182;21.206;2023-02-11T02:16:25;22.25;;;11.82;;
36745;SDS011;22715;52.182;21.206;2023-02-11T02:32:36;22.52;;;14.75;;
36745;SDS011;22715;52.182;21.206;2023-02-11T02:35:04;19.50;;;9.98;;
36745;SDS011;22715;52.182;21.206;2023-02-11T02:40:40;17.45;;;10.70;;
36745;SDS011;22715;52.182;21.206;2023-02-11T02:43:11;17.27;;;10.35;;
36745;SDS011;22715;52.182;21.206;2023-02-11T02:45:37;21.60;;;9.95;;
36745;SDS011;22715;52.182;21.206;2023-02-11T02:48:02;17.23;;;9.60;;
36745;SDS011;22715;52.182;21.206;2023-02-11T02:50:47;16.00;;;8.48;;
36745;SDS011;22715;52.182;21.206;2023-02-11T02:59:00;19.88;;;9.65;;
36745;SDS011;22715;52.182;21.206;2023-02-11T03:09:30;20.67;;;9.48;;
36745;SDS011;22715;52.182;21.206;2023-02-11T03:11:56;20.40;;;9.90;;
36745;SDS011;22715;52.182;21.206;2023-02-11T03:14:23;16.80;;;9.18;;
36745;SDS011;22715;52.182;21.206;2023-02-11T03:16:59;16.65;;;7.90;;
36745;SDS011;22715;52.182;21.206;2023-02-11T03:19:26;18.25;;;9.30;;
36745;SDS011;22715;52.182;21.206;2023-02-11T03:21:53;13.82;;;8.20;;
36745;SDS011;22715;52.182;21.206;2023-02-11T03:24:30;18.33;;;10.05;;
36745;SDS011;22715;52.182;21.206;2023-02-11T03:26:58;18.25;;;8.43;;
36745;SDS011;22715;52.182;21.206;2023-02-11T03:34:56;17.85;;;8.90;;
36745;SDS011;22715;52.182;21.206;2023-02-11T03:37:34;18.83;;;10.10;;
36745;SDS011;22715;52.182;21.206;2023-02-11T03:42:55;19.40;;;8.63;;
36745;SDS011;22715;52.182;21.206;2023-02-11T03:45:26;16.83;;;8.10;;
36745;SDS011;22715;52.182;21.206;2023-02-11T03:47:57;17.58;;;9.13;;
36745;SDS011;22715;52.182;21.206;2023-02-11T03:50:24;16.00;;;9.43;;
36745;SDS011;22715;52.182;21.206;2023-02-11T03:52:50;18.80;;;8.70;;
36745;SDS011;22715;52.182;21.206;2023-02-11T03:55:20;14.90;;;8.23;;
36745;SDS011;22715;52.182;21.206;2023-02-11T03:57:54;14.68;;;8.75;;
36745;SDS011;22715;52.182;21.206;2023-02-11T04:00:20;17.52;;;10.70;;
36745;SDS011;22715;52.182;21.206;2023-02-11T04:05:48;22.75;;;10.07;;
36745;SDS011;22715;52.182;21.206;2023-02-11T04:08:17;16.00;;;8.57;;
36745;SDS011;22715;52.182;21.206;2023-02-11T04:10:42;16.70;;;8.65;;
36745;SDS011;22715;52.182;21.206;2023-02-11T04:13:08;19.83;;;10.10;;
36745;SDS011;22715;52.182;21.206;2023-02-11T04:15:36;15.60;;;6.90;;
36745;SDS011;22715;52.182;21.206;2023-02-11T04:18:03;17.42;;;9.40;;
36745;SDS011;22715;52.182;21.206;2023-02-11T04:20:29;16.73;;;10.15;;
36745;SDS011;22715;52.182;21.206;2023-02-11T04:22:55;23.38;;;10.38;;
36745;SDS011;22715;52.182;21.206;2023-02-11T04:25:22;17.63;;;9.93;;
36745;SDS011;22715;52.182;21.206;2023-02-11T04:27:50;14.50;;;8.68;;
36745;SDS011;22715;52.182;21.206;2023-02-11T04:30:17;17.20;;;9.98;;
36745;SDS011;22715;52.182;21.206;2023-02-11T04:32:47;22.67;;;11.00;;
36745;SDS011;22715;52.182;21.206;2023-02-11T04:35:25;18.42;;;10.13;;
36745;SDS011;22715;52.182;21.206;2023-02-11T04:37:50;17.33;;;9.77;;
36745;SDS011;22715;52.182;21.206;2023-02-11T04:43:22;23.58;;;12.32;;
36745;SDS011;22715;52.182;21.206;2023-02-11T04:51:13;19.52;;;11.38;;
36745;SDS011;22715;52.182;21.206;2023-02-11T04:53:43;18.15;;;10.18;;
36745;SDS011;22715;52.182;21.206;2023-02-11T04:56:14;19.40;;;9.80;;
36745;SDS011;22715;52.182;21.206;2023-02-11T04:58:39;23.48;;;10.27;;
36745;SDS011;22715;52.182;21.206;2023-02-11T05:01:09;22.13;;;9.75;;
36745;SDS011;22715;52.182;21.206;2023-02-11T05:03:34;20.73;;;13.05;;
36745;SDS011;22715;52.182;21.206;2023-02-11T05:06:00;23.63;;;11.85;;
36745;SDS011;22715;52.182;21.206;2023-02-11T05:08:26;18.83;;;11.25;;
36745;SDS011;22715;52.182;21.206;2023-02-11T05:10:51;21.95;;;11.65;;
36745;SDS011;22715;52.182;21.206;2023-02-11T05:13:16;25.33;;;12.18;;
36745;SDS011;22715;52.182;21.206;2023-02-11T05:15:42;19.45;;;11.07;;
36745;SDS011;22715;52.182;21.206;2023-02-11T05:18:07;27.20;;;13.07;;
36745;SDS011;22715;52.182;21.206;2023-02-11T05:20:33;20.27;;;11.20;;
36745;SDS011;22715;52.182;21.206;2023-02-11T05:22:58;18.88;;;11.65;;
36745;SDS011;22715;52.182;21.206;2023-02-11T05:25:24;28.38;;;15.23;;
36745;SDS011;22715;52.182;21.206;2023-02-11T05:27:49;25.27;;;11.93;;
36745;SDS011;22715;52.182;21.206;2023-02-11T05:30:15;20.52;;;11.48;;
36745;SDS011;22715;52.182;21.206;2023-02-11T05:35:09;23.70;;;10.98;;
36745;SDS011;22715;52.182;21.206;2023-02-11T05:37:35;27.08;;;11.85;;
36745;SDS011;22715;52.182;21.206;2023-02-11T05:40:00;19.67;;;10.73;;
36745;SDS011;22715;52.182;21.206;2023-02-11T05:45:16;16.45;;;11.15;;
36745;SDS011;22715;52.182;21.206;2023-02-11T05:47:44;24.33;;;12.98;;
36745;SDS011;22715;52.182;21.206;2023-02-11T05:52:46;22.42;;;12.90;;
36745;SDS011;22715;52.182;21.206;2023-02-11T05:55:11;23.02;;;12.82;;
36745;SDS011;22715;52.182;21.206;2023-02-11T05:57:36;25.95;;;11.82;;
36745;SDS011;22715;52.182;21.206;2023-02-11T06:00:02;26.20;;;13.40;;
36745;SDS011;22715;52.182;21.206;2023-02-11T06:02:36;16.08;;;9.95;;
36745;SDS011;22715;52.182;21.206;2023-02-11T06:05:01;20.25;;;10.65;;
36745;SDS011;22715;52.182;21.206;2023-02-11T06:07:26;25.17;;;12.07;;
36745;SDS011;22715;52.182;21.206;2023-02-11T06:12:40;16.63;;;10.23;;
36745;SDS011;22715;52.182;21.206;2023-02-11T06:15:05;21.25;;;12.68;;
36745;SDS011;22715;52.182;21.206;2023-02-11T06:17:31;22.90;;;13.65;;
36745;SDS011;22715;52.182;21.206;2023-02-11T06:19:58;20.17;;;11.60;;
36745;SDS011;22715;52.182;21.206;2023-02-11T06:22:27;23.25;;;11.98;;
36745;SDS011;22715;52.182;21.206;2023-02-11T06:24:52;28.23;;;14.00;;
36745;SDS011;22715;52.182;21.206;2023-02-11T06:27:19;28.10;;;13.95;;
36745;SDS011;22715;52.182;21.206;2023-02-11T06:32:48;22.92;;;13.90;;
36745;SDS011;22715;52.182;21.206;2023-02-11T06:35:15;25.33;;;13.50;;
36745;SDS011;22715;52.182;21.206;2023-02-11T06:37:49;22.75;;;12.77;;
36745;SDS011;22715;52.182;21.206;2023-02-11T06:43:00;27.67;;;13.80;;
36745;SDS011;22715;52.182;21.206;2023-02-11T06:45:26;22.98;;;13.23;;
36745;SDS011;22715;52.182;21.206;2023-02-11T06:47:51;28.95;;;16.23;;
36745;SDS011;22715;52.182;21.206;2023-02-11T06:50:17;24.50;;;13.15;;
36745;SDS011;22715;52.182;21.206;2023-02-11T06:52:45;29.98;;;15.02;;
36745;SDS011;22715;52.182;21.206;2023-02-11T06:55:14;25.42;;;14.15;;
36745;SDS011;22715;52.182;21.206;2023-02-11T06:57:42;23.30;;;13.77;;
36745;SDS011;22715;52.182;21.206;2023-02-11T07:00:09;20.52;;;11.70;;
36745;SDS011;22715;52.182;21.206;2023-02-11T07:02:35;30.45;;;16.38;;
36745;SDS011;22715;52.182;21.206;2023-02-11T07:05:01;24.65;;;13.85;;
36745;SDS011;22715;52.182;21.206;2023-02-11T07:07:30;26.70;;;12.43;;
36745;SDS011;22715;52.182;21.206;2023-02-11T07:09:56;23.85;;;13.05;;
36745;SDS011;22715;52.182;21.206;2023-02-11T07:12:21;24.65;;;15.23;;
36745;SDS011;22715;52.182;21.206;2023-02-11T07:14:49;23.88;;;14.52;;
36745;SDS011;22715;52.182;21.206;2023-02-11T07:17:15;22.13;;;12.77;;
36745;SDS011;22715;52.182;21.206;2023-02-11T07:19:40;27.13;;;14.85;;
36745;SDS011;22715;52.182;21.206;2023-02-11T07:22:06;23.58;;;15.10;;
36745;SDS011;22715;52.182;21.206;2023-02-11T07:24:31;24.42;;;14.85;;
36745;SDS011;22715;52.182;21.206;2023-02-11T07:27:09;27.20;;;16.25;;
36745;SDS011;22715;52.182;21.206;2023-02-11T07:30:02;28.63;;;17.35;;
36745;SDS011;22715;52.182;21.206;2023-02-11T07:32:37;28.40;;;15.70;;
36745;SDS011;22715;52.182;21.206;2023-02-11T07:35:07;31.98;;;16.25;;
36745;SDS011;22715;52.182;21.206;2023-02-11T07:37:33;29.43;;;15.50;;
36745;SDS011;22715;52.182;21.206;2023-02-11T07:40:18;31.73;;;17.50;;
36745;SDS011;22715;52.182;21.206;2023-02-11T07:43:00;29.10;;;15.25;;
36745;SDS011;22715;52.182;21.206;2023-02-11T07:45:37;29.95;;;16.10;;
36745;SDS011;22715;52.182;21.206;2023-02-11T07:48:03;31.33;;;17.42;;
36745;SDS011;22715;52.182;21.206;2023-02-11T07:50:36;29.63;;;16.17;;
36745;SDS011;22715;52.182;21.206;2023-02-11T07:53:11;36.03;;;19.45;;
36745;SDS011;22715;52.182;21.206;2023-02-11T07:55:38;27.35;;;16.08;;
36745;SDS011;22715;52.182;21.206;2023-02-11T07:58:03;34.42;;;16.92;;
36745;SDS011;22715;52.182;21.206;2023-02-11T08:00:29;33.45;;;18.85;;
36745;SDS011;22715;52.182;21.206;2023-02-11T08:03:07;31.48;;;16.83;;
36745;SDS011;22715;52.182;21.206;2023-02-11T08:05:37;31.23;;;17.27;;
36745;SDS011;22715;52.182;21.206;2023-02-11T08:08:10;32.30;;;17.23;;
36745;SDS011;22715;52.182;21.206;2023-02-11T08:10:46;37.97;;;20.23;;
36745;SDS011;22715;52.182;21.206;2023-02-11T08:15:57;35.08;;;18.35;;
36745;SDS011;22715;52.182;21.206;2023-02-11T08:18:25;35.38;;;18.15;;
36745;SDS011;22715;52.182;21.206;2023-02-11T08:20:51;35.30;;;18.83;;
36745;SDS011;22715;52.182;21.206;2023-02-11T08:23:16;34.47;;;19.17;;
36745;SDS011;22715;52.182;21.206;2023-02-11T08:25:42;26.33;;;18.05;;
36745;SDS011;22715;52.182;21.206;2023-02-11T08:28:09;37.50;;;19.40;;
36745;SDS011;22715;52.182;21.206;2023-02-11T08:30:34;32.20;;;19.08;;
36745;SDS011;22715;52.182;21.206;2023-02-11T08:33:00;33.40;;;20.40;;
36745;SDS011;22715;52.182;21.206;2023-02-11T08:35:29;35.15;;;18.33;;
36745;SDS011;22715;52.182;21.206;2023-02-11T08:37:54;40.65;;;19.15;;
36745;SDS011;22715;52.182;21.206;2023-02-11T08:42:51;36.95;;;20.20;;
36745;SDS011;22715;52.182;21.206;2023-02-11T08:45:16;37.03;;;19.25;;
36745;SDS011;22715;52.182;21.206;2023-02-11T08:47:42;40.45;;;21.70;;
36745;SDS011;22715;52.182;21.206;2023-02-11T08:50:07;32.28;;;18.80;;
36745;SDS011;22715;52.182;21.206;2023-02-11T08:52:34;36.72;;;19.83;;
36745;SDS011;22715;52.182;21.206;2023-02-11T08:54:59;42.20;;;19.70;;
36745;SDS011;22715;52.182;21.206;2023-02-11T08:57:25;32.50;;;17.40;;
36745;SDS011;22715;52.182;21.206;2023-02-11T08:59:50;37.20;;;20.50;;
36745;SDS011;22715;52.182;21.206;2023-02-11T09:02:15;47.42;;;22.83;;
36745;SDS011;22715;52.182;21.206;2023-02-11T09:04:41;37.90;;;20.45;;
36745;SDS011;22715;52.182;21.206;2023-02-11T09:07:06;44.28;;;21.83;;
36745;SDS011;22715;52.182;21.206;2023-02-11T09:09:32;43.58;;;21.42;;
36745;SDS011;22715;52.182;21.206;2023-02-11T09:11:59;40.80;;;21.52;;
36745;SDS011;22715;52.182;21.206;2023-02-11T09:14:25;42.55;;;21.42;;
36745;SDS011;22715;52.182;21.206;2023-02-11T09:16:53;40.75;;;22.02;;
36745;SDS011;22715;52.182;21.206;2023-02-11T09:19:19;42.38;;;22.75;;
36745;SDS011;22715;52.182;21.206;2023-02-11T09:21:45;36.70;;;22.02;;
36745;SDS011;22715;52.182;21.206;2023-02-11T09:24:11;42.10;;;21.95;;
36745;SDS011;22715;52.182;21.206;2023-02-11T09:26:37;39.13;;;20.63;;
36745;SDS011;22715;52.182;21.206;2023-02-11T09:29:03;40.03;;;20.83;;
36745;SDS011;22715;52.182;21.206;2023-02-11T09:31:29;37.20;;;23.20;;
36745;SDS011;22715;52.182;21.206;2023-02-11T09:34:01;35.92;;;21.02;;
36745;SDS011;22715;52.182;21.206;2023-02-11T09:36:29;43.70;;;20.42;;
36745;SDS011;22715;52.182;21.206;2023-02-11T09:38:56;37.20;;;20.75;;
36745;SDS011;22715;52.182;21.206;2023-02-11T09:43:48;41.53;;;22.52;;
36745;SDS011;22715;52.182;21.206;2023-02-11T09:46:14;35.33;;;20.33;;
36745;SDS011;22715;52.182;21.206;2023-02-11T09:48:40;40.13;;;21.88;;
36745;SDS011;22715;52.182;21.206;2023-02-11T09:53:36;40.10;;;23.52;;
36745;SDS011;22715;52.182;21.206;2023-02-11T09:56:09;32.73;;;19.53;;
36745;SDS011;22715;52.182;21.206;2023-02-11T09:58:39;31.08;;;19.15;;
36745;SDS011;22715;52.182;21.206;2023-02-11T10:11:40;39.33;;;19.98;;
36745;SDS011;22715;52.182;21.206;2023-02-11T10:16:59;32.45;;;20.55;;
36745;SDS011;22715;52.182;21.206;2023-02-11T10:24:25;41.97;;;21.23;;
36745;SDS011;22715;52.182;21.206;2023-02-11T10:26:52;37.92;;;20.38;;
36745;SDS011;22715;52.182;21.206;2023-02-11T10:29:25;41.13;;;19.80;;
36745;SDS011;22715;52.182;21.206;2023-02-11T10:31:55;41.40;;;22.25;;
36745;SDS011;22715;52.182;21.206;2023-02-11T10:34:24;39.45;;;20.48;;
36745;SDS011;22715;52.182;21.206;2023-02-11T10:36:49;38.65;;;23.75;;
36745;SDS011;22715;52.182;21.206;2023-02-11T10:39:16;32.63;;;20.80;;
36745;SDS011;22715;52.182;21.206;2023-02-11T10:41:43;37.65;;;21.08;;
36745;SDS011;22715;52.182;21.206;2023-02-11T10:44:13;38.28;;;21.73;;
36745;SDS011;22715;52.182;21.206;2023-02-11T10:46:43;40.17;;;23.25;;
36745;SDS011;22715;52.182;21.206;2023-02-11T10:49:09;37.42;;;20.10;;
36745;SDS011;22715;52.182;21.206;2023-02-11T10:51:46;34.95;;;20.10;;
36745;SDS011;22715;52.182;21.206;2023-02-11T10:54:16;43.05;;;22.25;;
36745;SDS011;22715;52.182;21.206;2023-02-11T10:56:57;39.33;;;20.65;;
36745;SDS011;22715;52.182;21.206;2023-02-11T10:59:26;32.60;;;19.27;;
36745;SDS011;22715;52.182;21.206;2023-02-11T11:01:56;38.45;;;20.30;;
36745;SDS011;22715;52.182;21.206;2023-02-11T11:06:48;31.77;;;18.23;;
36745;SDS011;22715;52.182;21.206;2023-02-11T11:09:25;33.53;;;18.85;;
36745;SDS011;22715;52.182;21.206;2023-02-11T11:11:51;37.42;;;21.13;;
36745;SDS011;22715;52.182;21.206;2023-02-11T11:14:18;37.13;;;22.52;;
36745;SDS011;22715;52.182;21.206;2023-02-11T11:16:53;36.78;;;21.05;;
36745;SDS011;22715;52.182;21.206;2023-02-11T11:19:29;38.30;;;20.98;;
36745;SDS011;22715;52.182;21.206;2023-02-11T11:21:55;43.30;;;23.83;;
36745;SDS011;22715;52.182;21.206;2023-02-11T11:24:21;37.53;;;23.40;;
36745;SDS011;22715;52.182;21.206;2023-02-11T11:26:49;43.83;;;23.38;;
36745;SDS011;22715;52.182;21.206;2023-02-11T11:29:18;37.72;;;22.23;;
36745;SDS011;22715;52.182;21.206;2023-02-11T11:34:29;39.13;;;21.27;;
36745;SDS011;22715;52.182;21.206;2023-02-11T11:36:56;42.42;;;22.52;;
36745;SDS011;22715;52.182;21.206;2023-02-11T11:39:26;47.10;;;23.25;;
36745;SDS011;22715;52.182;21.206;2023-02-11T11:41:53;44.93;;;24.63;;
36745;SDS011;22715;52.182;21.206;2023-02-11T11:44:23;44.67;;;24.27;;
36745;SDS011;22715;52.182;21.206;2023-02-11T11:46:55;51.28;;;24.67;;
36745;SDS011;22715;52.182;21.206;2023-02-11T11:57:44;49.03;;;26.70;;
36745;SDS011;22715;52.182;21.206;2023-02-11T12:05:30;43.05;;;23.58;;
36745;SDS011;22715;52.182;21.206;2023-02-11T12:08:20;54.97;;;28.08;;
36745;SDS011;22715;52.182;21.206;2023-02-11T12:27:26;50.30;;;25.17;;
36745;SDS011;22715;52.182;21.206;2023-02-11T12:39:49;47.85;;;26.20;;
36745;SDS011;22715;52.182;21.206;2023-02-11T12:45:30;58.83;;;27.40;;
36745;SDS011;22715;52.182;21.206;2023-02-11T12:53:24;57.03;;;25.45;;
36745;SDS011;22715;52.182;21.206;2023-02-11T12:55:57;52.13;;;30.33;;
36745;SDS011;22715;52.182;21.206;2023-02-11T12:58:24;53.03;;;26.67;;
36745;SDS011;22715;52.182;21.206;2023-02-11T13:00:56;63.25;;;29.70;;
36745;SDS011;22715;52.182;21.206;2023-02-11T13:03:24;59.88;;;29.60;;
36745;SDS011;22715;52.182;21.206;2023-02-11T13:05:55;60.65;;;30.85;;
36745;SDS011;22715;52.182;21.206;2023-02-11T13:10:51;54.42;;;26.30;;
36745;SDS011;22715;52.182;21.206;2023-02-11T13:16:02;55.20;;;26.80;;
36745;SDS011;22715;52.182;21.206;2023-02-11T13:18:35;60.97;;;28.67;;
36745;SDS011;22715;52.182;21.206;2023-02-11T13:26:27;54.10;;;28.17;;
36745;SDS011;22715;52.182;21.206;2023-02-11T13:31:39;54.58;;;26.65;;
36745;SDS011;22715;52.182;21.206;2023-02-11T13:34:20;51.13;;;28.48;;
36745;SDS011;22715;52.182;21.206;2023-02-11T13:36:52;63.83;;;31.33;;
36745;SDS011;22715;52.182;21.206;2023-02-11T13:39:19;56.75;;;25.90;;
36745;SDS011;22715;52.182;21.206;2023-02-11T13:41:45;58.53;;;30.45;;
36745;SDS011;22715;52.182;21.206;2023-02-11T13:46:50;60.53;;;30.63;;
36745;SDS011;22715;52.182;21.206;2023-02-11T13:49:37;56.25;;;31.77;;
36745;SDS011;22715;52.182;21.206;2023-02-11T13:52:17;57.65;;;28.15;;
36745;SDS011;22715;52.182;21.206;2023-02-11T13:54:47;59.03;;;28.80;;
36745;SDS011;22715;52.182;21.206;2023-02-11T13:59:48;55.17;;;28.00;;
36745;SDS011;22715;52.182;21.206;2023-02-11T14:02:33;52.30;;;29.15;;
36745;SDS011;22715;52.182;21.206;2023-02-11T14:13:24;60.35;;;27.10;;
36745;SDS011;22715;52.182;21.206;2023-02-11T14:21:10;61.72;;;28.83;;
36745;SDS011;22715;52.182;21.206;2023-02-11T14:23:37;51.88;;;27.80;;
36745;SDS011;22715;52.182;21.206;2023-02-11T14:26:21;56.58;;;33.08;;
36745;SDS011;22715;52.182;21.206;2023-02-11T14:28:51;58.10;;;31.63;;
36745;SDS011;22715;52.182;21.206;2023-02-11T14:31:20;56.10;;;29.48;;
36745;SDS011;22715;52.182;21.206;2023-02-11T14:33:49;53.17;;;29.10;;
36745;SDS011;22715;52.182;21.206;2023-02-11T14:41:43;53.95;;;30.42;;
36745;SDS011;22715;52.182;21.206;2023-02-11T14:46:44;53.97;;;29.30;;
36745;SDS011;22715;52.182;21.206;2023-02-11T14:49:12;56.17;;;29.48;;
36745;SDS011;22715;52.182;21.206;2023-02-11T14:51:40;54.47;;;27.42;;
36745;SDS011;22715;52.182;21.206;2023-02-11T14:54:10;49.92;;;26.63;;
36745;SDS011;22715;52.182;21.206;2023-02-11T14:56:37;50.17;;;25.70;;
36745;SDS011;22715;52.182;21.206;2023-02-11T14:59:12;52.72;;;28.58;;
36745;SDS011;22715;52.182;21.206;2023-02-11T15:01:39;49.63;;;24.73;;
36745;SDS011;22715;52.182;21.206;2023-02-11T15:04:12;59.65;;;28.25;;
36745;SDS011;22715;52.182;21.206;2023-02-11T15:06:46;46.28;;;27.10;;
36745;SDS011;22715;52.182;21.206;2023-02-11T15:09:17;49.78;;;25.58;;
36745;SDS011;22715;52.182;21.206;2023-02-11T15:11:44;50.22;;;28.40;;
36745;SDS011;22715;52.182;21.206;2023-02-11T15:14:14;53.60;;;26.95;;
36745;SDS011;22715;52.182;21.206;2023-02-11T15:16:41;48.83;;;27.10;;
36745;SDS011;22715;52.182;21.206;2023-02-11T15:19:17;46.88;;;26.10;;
36745;SDS011;22715;52.182;21.206;2023-02-11T15:21:43;44.17;;;23.77;;
36745;SDS011;22715;52.182;21.206;2023-02-11T15:24:28;45.72;;;24.95;;
36745;SDS011;22715;52.182;21.206;2023-02-11T15:26:55;48.60;;;25.35;;
36745;SDS011;22715;52.182;21.206;2023-02-11T15:29:22;51.53;;;25.85;;
36745;SDS011;22715;52.182;21.206;2023-02-11T15:31:52;39.05;;;24.48;;
36745;SDS011;22715;52.182;21.206;2023-02-11T15:34:26;43.03;;;24.58;;
36745;SDS011;22715;52.182;21.206;2023-02-11T15:36:51;54.65;;;25.73;;
36745;SDS011;22715;52.182;21.206;2023-02-11T15:39:18;43.40;;;24.95;;
36745;SDS011;22715;52.182;21.206;2023-02-11T15:41:44;38.25;;;23.48;;
36745;SDS011;22715;52.182;21.206;2023-02-11T15:44:25;42.05;;;21.52;;
36745;SDS011;22715;52.182;21.206;2023-02-11T15:46:51;43.72;;;24.27;;
36745;SDS011;22715;52.182;21.206;2023-02-11T15:49:16;41.17;;;23.55;;
36745;SDS011;22715;52.182;21.206;2023-02-11T15:51:43;57.67;;;25.27;;
36745;SDS011;22715;52.182;21.206;2023-02-11T15:54:19;44.67;;;24.48;;
36745;SDS011;22715;52.182;21.206;2023-02-11T15:56:47;45.85;;;22.95;;
36745;SDS011;22715;52.182;21.206;2023-02-11T16:04:56;42.83;;;23.60;;
36745;SDS011;22715;52.182;21.206;2023-02-11T16:12:40;42.33;;;24.63;;
36745;SDS011;22715;52.182;21.206;2023-02-11T16:17:49;43.80;;;22.73;;
36745;SDS011;22715;52.182;21.206;2023-02-11T16:20:18;39.60;;;21.27;;
36745;SDS011;22715;52.182;21.206;2023-02-11T16:22:43;41.90;;;23.58;;
36745;SDS011;22715;52.182;21.206;2023-02-11T16:25:16;36.92;;;23.50;;
36745;SDS011;22715;52.182;21.206;2023-02-11T16:27:42;34.05;;;19.83;;
36745;SDS011;22715;52.182;21.206;2023-02-11T16:32:46;41.95;;;22.00;;
36745;SDS011;22715;52.182;21.206;2023-02-11T16:35:12;45.25;;;22.38;;
36745;SDS011;22715;52.182;21.206;2023-02-11T16:37:37;33.55;;;20.30;;
36745;SDS011;22715;52.182;21.206;2023-02-11T16:40:03;41.38;;;20.75;;
36745;SDS011;22715;52.182;21.206;2023-02-11T16:42:43;36.85;;;20.48;;
36745;SDS011;22715;52.182;21.206;2023-02-11T16:47:36;40.20;;;21.27;;
36745;SDS011;22715;52.182;21.206;2023-02-11T16:50:06;36.65;;;20.23;;
36745;SDS011;22715;52.182;21.206;2023-02-11T16:52:32;42.03;;;21.98;;
36745;SDS011;22715;52.182;21.206;2023-02-11T16:54:57;39.33;;;20.85;;
36745;SDS011;22715;52.182;21.206;2023-02-11T16:57:23;34.72;;;21.95;;
36745;SDS011;22715;52.182;21.206;2023-02-11T16:59:49;33.38;;;21.95;;
36745;SDS011;22715;52.182;21.206;2023-02-11T17:04:43;37.88;;;23.05;;
36745;SDS011;22715;52.182;21.206;2023-02-11T17:07:08;31.60;;;19.02;;
36745;SDS011;22715;52.182;21.206;2023-02-11T17:09:34;32.42;;;17.42;;
36745;SDS011;22715;52.182;21.206;2023-02-11T17:11:59;38.72;;;21.63;;
36745;SDS011;22715;52.182;21.206;2023-02-11T17:14:25;38.65;;;20.10;;
36745;SDS011;22715;52.182;21.206;2023-02-11T17:16:53;34.67;;;20.50;;
36745;SDS011;22715;52.182;21.206;2023-02-11T17:19:19;32.28;;;18.60;;
36745;SDS011;22715;52.182;21.206;2023-02-11T17:21:48;31.67;;;20.83;;
36745;SDS011;22715;52.182;21.206;2023-02-11T17:24:14;40.53;;;22.70;;
36745;SDS011;22715;52.182;21.206;2023-02-11T17:26:40;41.13;;;24.52;;
36745;SDS011;22715;52.182;21.206;2023-02-11T17:29:06;39.78;;;19.88;;
36745;SDS011;22715;52.182;21.206;2023-02-11T17:31:31;33.63;;;20.23;;
36745;SDS011;22715;52.182;21.206;2023-02-11T17:33:57;36.22;;;18.92;;
36745;SDS011;22715;52.182;21.206;2023-02-11T17:36:22;32.25;;;19.40;;
36745;SDS011;22715;52.182;21.206;2023-02-11T17:38:48;31.15;;;19.98;;
36745;SDS011;22715;52.182;21.206;2023-02-11T17:41:13;43.17;;;22.65;;
36745;SDS011;22715;52.182;21.206;2023-02-11T17:43:38;38.55;;;21.83;;
36745;SDS011;22715;52.182;21.206;2023-02-11T17:46:04;27.05;;;18.02;;
36745;SDS011;22715;52.182;21.206;2023-02-11T17:48:35;30.30;;;18.63;;
36745;SDS011;22715;52.182;21.206;2023-02-11T17:51:00;35.45;;;19.17;;
36745;SDS011;22715;52.182;21.206;2023-02-11T17:53:26;35.08;;;20.85;;
36745;SDS011;22715;52.182;21.206;2023-02-11T17:55:53;38.60;;;19.05;;
36745;SDS011;22715;52.182;21.206;2023-02-11T17:58:18;33.67;;;18.90;;
36745;SDS011;22715;52.182;21.206;2023-02-11T18:01:02;34.58;;;20.67;;
36745;SDS011;22715;52.182;21.206;2023-02-11T18:03:27;30.80;;;17.55;;